Terminal Aerodrome Forecast
Issued by NWS

Home | Current Version | Previous Version | Text Only | Print | Product List | Glossary On
Versions: 1 2 3 4 5 6 7 8 9 10 11 12 13 14 15 16 17
000
FTUS44 KBMX 282341
TAFEET
TAF
KEET 282341Z 2900/2924 12005KT P6SM VCTS SCT015 SCT050CB
     FM290200 00000KT P6SM SCT250
     FM290800 00000KT 5SM BR SCT250=

USA.gov is the U.S. government's official web portal to all federal, state and local government web resources and services.